Time;durP1;ratioP1;P1;durP2;ratioP2;P2;SDS_P1;SDS_P2;PMS_P1;PMS_P2;Temp;Humidity;BMP_temperature;BMP_pressure;BME280_temperature;BME280_humidity;BME280_pressure;Samples;Min_cycle;Max_cycle;Signal;HPM_P1;HPM_P2
2022/08/05 00:02:22;;;;;;;3.38;2.88;;;;;;;16.89;100.00;91148.44;5011036;28;20491;-70
2022/08/05 00:04:48;;;;;;;4.65;3.10;;;;;;;16.95;100.00;91147.84;5010987;28;20034;-69
2022/08/05 00:07:14;;;;;;;2.53;2.30;;;;;;;16.99;100.00;91154.09;5010973;28;20038;-70
2022/08/05 00:09:39;;;;;;;4.60;3.63;;;;;;;16.96;100.00;91159.38;5010867;28;20044;-70
2022/08/05 00:12:05;;;;;;;3.55;2.58;;;;;;;16.91;100.00;91138.91;5010945;28;20077;-70
2022/08/05 00:14:31;;;;;;;3.45;2.50;;;;;;;16.93;100.00;91149.31;5011086;28;20041;-70
2022/08/05 00:16:56;;;;;;;3.13;2.83;;;;;;;16.94;100.00;91148.97;5014213;28;20099;-71
2022/08/05 00:19:22;;;;;;;2.95;2.72;;;;;;;16.91;100.00;91128.16;5014335;28;20552;-70
2022/08/05 00:21:48;;;;;;;4.50;2.65;;;;;;;16.84;100.00;91133.31;5014322;28;20033;-70
2022/08/05 00:24:14;;;;;;;3.17;2.55;;;;;;;16.86;100.00;91136.44;5014360;28;20060;-70
2022/08/05 00:26:39;;;;;;;4.00;2.83;;;;;;;16.85;100.00;91129.50;5014377;28;20092;-70
2022/08/05 00:29:05;;;;;;;3.15;2.83;;;;;;;16.85;100.00;91131.41;5012823;28;20034;-71
2022/08/05 00:31:30;;;;;;;3.22;2.72;;;;;;;16.81;100.00;91136.69;5014155;28;20037;-71
2022/08/05 00:33:55;;;;;;;2.80;2.50;;;;;;;16.75;100.00;91140.75;5014119;28;20047;-70
2022/08/05 00:36:23;;;;;;;3.92;2.92;;;;;;;16.74;100.00;91131.13;5014018;28;20029;-70
2022/08/05 00:38:49;;;;;;;4.10;2.88;;;;;;;16.69;100.00;91134.81;5013971;28;20046;-70
2022/08/05 00:41:29;;;;;;;3.22;2.42;;;;;;;16.60;100.00;91136.06;5013949;28;20034;-70
2022/08/05 00:43:55;;;;;;;2.88;2.67;;;;;;;16.55;100.00;91139.75;5013922;28;20041;-69
2022/08/05 00:46:21;;;;;;;5.03;3.33;;;;;;;16.54;100.00;91132.03;5013899;28;20412;-69
2022/08/05 00:48:47;;;;;;;2.47;2.25;;;;;;;16.49;100.00;91133.06;5013730;28;20135;-70
2022/08/05 00:51:13;;;;;;;2.83;2.63;;;;;;;16.48;100.00;91136.88;5013795;28;20041;-69
2022/08/05 00:53:39;;;;;;;6.43;2.70;;;;;;;16.50;100.00;91129.25;5013741;28;20041;-69
2022/08/05 00:56:04;;;;;;;3.03;2.70;;;;;;;16.58;100.00;91132.94;5013575;28;20030;-69
2022/08/05 00:58:30;;;;;;;2.88;2.35;;;;;;;16.55;100.00;91120.16;5013522;28;20515;-69
2022/08/05 01:00:55;;;;;;;3.28;2.75;;;;;;;16.55;100.00;91125.53;5013589;28;20069;-69
2022/08/05 01:03:21;;;;;;;4.20;2.60;;;;;;;16.54;100.00;91118.59;5013554;28;20070;-69
2022/08/05 01:05:46;;;;;;;4.47;3.13;;;;;;;16.53;100.00;91117.81;5013491;28;20034;-70
2022/08/05 01:08:12;;;;;;;3.58;2.85;;;;;;;16.51;100.00;91124.66;5012137;28;20571;-69
2022/08/05 01:10:41;;;;;;;4.25;2.88;;;;;;;16.38;100.00;91124.69;5013378;28;20046;-70
2022/08/05 01:13:15;;;;;;;3.13;2.78;;;;;;;16.32;100.00;91131.41;5013411;28;20113;-69
2022/08/05 01:15:45;;;;;;;;;;;;;;;16.24;100.00;91131.53;5013530;28;20050;-69
2022/08/05 01:18:22;;;;;;;3.08;2.50;;;;;;;16.04;100.00;91130.53;5013103;28;20358;-70
2022/08/05 01:21:05;;;;;;;3.35;2.63;;;;;;;15.95;100.00;91119.94;5013247;28;20034;-70
2022/08/05 01:23:36;;;;;;;5.18;2.83;;;;;;;15.89;100.00;91123.94;5013214;28;20117;-70
2022/08/05 01:26:30;;;;;;;3.67;2.72;;;;;;;15.79;100.00;91119.03;5013048;28;20109;-70
2022/08/05 01:29:12;;;;;;;2.95;2.67;;;;;;;15.72;100.00;91122.25;5013018;28;20045;-70
2022/08/05 01:31:46;;;;;;;3.30;2.55;;;;;;;15.56;100.00;91115.97;5012996;28;20037;-71
2022/08/05 01:34:35;;;;;;;3.45;2.58;;;;;;;15.46;100.00;91117.19;5012977;28;20037;-70
2022/08/05 01:37:16;;;;;;;4.38;2.88;;;;;;;15.39;100.00;91116.94;5012833;28;20042;-70
2022/08/05 01:39:45;;;;;;;3.25;2.53;;;;;;;15.44;100.00;91121.31;5012759;28;20416;-70
2022/08/05 01:42:13;;;;;;;3.67;2.50;;;;;;;15.53;100.00;91124.69;5011596;28;20049;-70
2022/08/05 01:44:40;;;;;;;2.85;2.40;;;;;;;15.55;100.00;91120.53;5012788;28;20045;-69
2022/08/05 01:47:07;;;;;;;3.28;2.58;;;;;;;15.58;100.00;91111.03;5012764;28;20540;-71
2022/08/05 01:49:35;;;;;;;3.80;2.72;;;;;;;15.79;100.00;91122.50;5012647;28;20576;-71
2022/08/05 01:52:02;;;;;;;3.10;2.75;;;;;;;15.77;100.00;91127.41;5012631;28;20045;-70
2022/08/05 01:54:34;;;;;;;4.97;2.78;;;;;;;15.75;100.00;91113.53;5012553;28;20042;-70
2022/08/05 01:57:03;;;;;;;6.78;3.15;;;;;;;15.71;100.00;91119.91;5012519;28;20168;-70
2022/08/05 01:59:31;;;;;;;3.50;2.55;;;;;;;15.63;100.00;91118.13;5012451;28;20042;-70
2022/08/05 02:01:59;;;;;;;3.28;2.60;;;;;;;15.56;100.00;91121.31;5012421;28;20026;-70
2022/08/05 02:04:28;;;;;;;3.33;2.80;;;;;;;15.46;100.00;91111.84;5012490;28;20041;-70
2022/08/05 02:06:55;;;;;;;3.70;3.30;;;;;;;15.41;100.00;91121.97;5012466;28;20114;-70
2022/08/05 02:09:21;;;;;;;5.63;2.92;;;;;;;15.41;100.00;91120.06;5012275;28;20061;-70
2022/08/05 02:11:52;;;;;;;2.97;2.55;;;;;;;15.34;100.00;91111.81;5012214;28;20128;-69
2022/08/05 02:14:26;;;;;;;3.25;2.75;;;;;;;15.25;100.00;91116.47;5012221;28;20038;-70
2022/08/05 02:16:54;;;;;;;4.38;2.95;;;;;;;15.22;100.00;91123.28;5011910;28;20056;-69
2022/08/05 02:19:26;;;;;;;3.05;2.70;;;;;;;15.16;100.00;91116.56;5012101;28;20096;-69
2022/08/05 02:22:11;;;;;;;3.70;2.72;;;;;;;15.20;100.00;91120.16;5012131;28;20034;-69
2022/08/05 02:24:39;;;;;;;3.17;2.88;;;;;;;15.11;100.00;91116.00;5012117;28;20034;-69
2022/08/05 02:27:09;;;;;;;3.03;2.58;;;;;;;15.09;100.00;91116.31;5012082;28;20047;-68
2022/08/05 02:29:35;;;;;;;3.83;2.80;;;;;;;15.10;100.00;91109.84;5011909;28;20037;-70
2022/08/05 02:32:03;;;;;;;3.20;2.50;;;;;;;15.17;100.00;91115.47;5011937;28;20112;-68
2022/08/05 02:34:31;;;;;;;2.90;2.58;;;;;;;15.20;100.00;91114.00;5010559;28;20045;-67
2022/08/05 02:37:01;;;;;;;3.47;2.80;;;;;;;15.23;100.00;91114.13;5011802;28;20034;-68
2022/08/05 02:39:33;;;;;;;3.55;2.83;;;;;;;15.28;100.00;91103.19;5011350;28;20044;-68
2022/08/05 02:41:59;;;;;;;3.83;3.08;;;;;;;15.31;100.00;91112.47;5011764;28;20111;-68
2022/08/05 02:44:27;;;;;;;4.28;2.83;;;;;;;15.36;100.00;91111.47;5011798;28;20451;-68
2022/08/05 02:46:55;;;;;;;3.35;2.60;;;;;;;15.36;100.00;91108.78;5011759;28;20473;-70
2022/08/05 02:49:22;;;;;;;3.70;2.65;;;;;;;15.41;100.00;91113.94;5011679;28;20100;-70
2022/08/05 02:51:48;;;;;;;3.00;2.70;;;;;;;15.26;100.00;91113.47;5011630;28;20091;-70
2022/08/05 02:54:14;;;;;;;2.47;2.28;;;;;;;15.21;100.00;91115.56;5011565;28;20056;-70
2022/08/05 02:56:44;;;;;;;3.40;2.70;;;;;;;15.08;100.00;91111.28;5011485;28;20037;-70
2022/08/05 02:59:11;;;;;;;2.45;2.17;;;;;;;14.94;100.00;91106.22;5011412;28;20041;-69
2022/08/05 03:01:39;;;;;;;3.15;2.60;;;;;;;15.00;100.00;91112.97;5011517;28;20036;-69
2022/08/05 03:04:06;;;;;;;4.10;2.78;;;;;;;14.91;100.00;91114.94;5011405;28;20046;-73
2022/08/05 03:06:34;;;;;;;3.85;2.90;;;;;;;14.87;100.00;91116.72;5011482;28;20476;-73
2022/08/05 03:09:00;;;;;;;3.00;2.70;;;;;;;14.82;100.00;91106.19;5011373;28;20041;-73
2022/08/05 03:11:26;;;;;;;3.47;2.67;;;;;;;14.80;100.00;91097.69;5011452;28;20037;-71
2022/08/05 03:13:52;;;;;;;3.28;2.63;;;;;;;14.81;100.00;91109.97;5011414;28;20496;-72
2022/08/05 03:16:19;;;;;;;4.22;3.00;;;;;;;14.77;100.00;91111.75;5011152;28;20061;-70
2022/08/05 03:18:45;;;;;;;4.30;2.85;;;;;;;14.76;100.00;91118.22;5011269;28;20030;-70
2022/08/05 03:21:10;;;;;;;3.45;2.92;;;;;;;14.76;100.00;91115.53;5011013;28;20496;-70
2022/08/05 03:23:39;;;;;;;3.50;2.95;;;;;;;14.73;100.00;91118.88;5011076;28;20121;-70
2022/08/05 03:26:05;;;;;;;3.35;2.83;;;;;;;14.71;100.00;91105.81;5011310;28;20038;-71
2022/08/05 03:28:31;;;;;;;4.50;3.08;;;;;;;14.74;100.00;91107.84;5011201;28;20107;-69
2022/08/05 03:30:59;;;;;;;3.05;2.40;;;;;;;14.83;100.00;91110.41;5011268;28;20563;-70
2022/08/05 03:33:26;;;;;;;2.95;2.55;;;;;;;14.89;100.00;91106.44;5011229;28;20064;-69
2022/08/05 03:35:52;;;;;;;5.30;2.70;;;;;;;14.94;100.00;91109.69;5011099;28;20049;-70
2022/08/05 03:38:18;;;;;;;5.18;3.40;;;;;;;14.92;100.00;91103.09;5011121;28;20124;-70
2022/08/05 03:40:45;;;;;;;3.90;2.88;;;;;;;14.97;100.00;91110.91;5011236;28;20092;-69
2022/08/05 03:43:11;;;;;;;2.80;2.55;;;;;;;14.89;100.00;91093.84;5009856;28;20068;-69
2022/08/05 03:45:37;;;;;;;3.22;2.90;;;;;;;14.94;100.00;91100.88;5011045;28;20060;-66
2022/08/05 03:48:02;;;;;;;3.83;2.85;;;;;;;14.89;100.00;91101.09;5011036;28;20493;-69
2022/08/05 03:50:40;;;;;;;3.42;2.80;;;;;;;14.97;100.00;91110.91;5012720;28;20527;-69
2022/08/05 03:53:17;;;;;;;3.35;2.53;;;;;;;15.06;100.00;91114.31;5014661;28;20101;-68
2022/08/05 03:55:56;;;;;;;4.70;2.58;;;;;;;15.08;100.00;91116.66;5014789;28;20077;-68
2022/08/05 03:58:26;;;;;;;2.92;2.63;;;;;;;15.10;100.00;91109.06;5014607;28;20117;-68
2022/08/05 04:00:54;;;;;;;4.00;2.90;;;;;;;15.17;100.00;91118.13;5013470;28;20401;-67
2022/08/05 04:03:21;;;;;;;2.95;2.50;;;;;;;15.20;100.00;91108.66;5014687;28;20120;-68
2022/08/05 04:05:48;;;;;;;4.80;3.30;;;;;;;15.16;100.00;91107.75;5014606;28;20049;-68
2022/08/05 04:08:14;;;;;;;4.00;3.10;;;;;;;15.24;100.00;91115.69;5014556;28;20030;-67
2022/08/05 04:10:42;;;;;;;3.53;2.85;;;;;;;15.34;100.00;91116.38;5014569;28;20120;-67
2022/08/05 04:13:08;;;;;;;3.40;3.08;;;;;;;15.34;100.00;91117.19;5014526;28;20045;-66
2022/08/05 04:15:34;;;;;;;5.30;3.17;;;;;;;15.39;100.00;91116.94;5014180;28;20424;-67
2022/08/05 04:18:02;;;;;;;2.85;2.60;;;;;;;15.38;100.00;91110.03;5014285;28;20420;-68
2022/08/05 04:20:28;;;;;;;3.47;2.83;;;;;;;15.52;100.00;91118.53;5014319;28;20522;-66
2022/08/05 04:22:53;;;;;;;4.97;3.05;;;;;;;15.56;100.00;91113.28;5013684;28;20038;-70
2022/08/05 04:25:19;;;;;;;4.13;2.65;;;;;;;15.66;100.00;91115.56;5031921;28;20064;-69
2022/08/05 04:27:44;;;;;;;3.15;2.75;;;;;;;15.74;100.00;91116.56;5033657;28;20522;-67
2022/08/05 04:30:10;;;;;;;4.53;3.40;;;;;;;15.81;100.00;91111.44;5033778;28;20041;-69
2022/08/05 04:32:36;;;;;;;4.72;2.67;;;;;;;15.82;100.00;91102.28;5033450;28;20037;-69
2022/08/05 04:35:01;;;;;;;3.10;2.72;;;;;;;15.93;100.00;91103.38;5033218;28;20045;-68
2022/08/05 04:37:27;;;;;;;2.70;2.50;;;;;;;16.00;100.00;91102.81;5033284;28;20029;-69
2022/08/05 04:39:52;;;;;;;3.92;3.03;;;;;;;16.08;100.00;91100.00;5033572;28;20138;-69
2022/08/05 04:42:17;;;;;;;3.80;3.20;;;;;;;16.17;100.00;91105.25;5048831;28;20487;-68
2022/08/05 04:44:43;;;;;;;4.03;3.50;;;;;;;16.24;100.00;91099.31;5033511;28;20530;-68
2022/08/05 04:47:08;;;;;;;4.60;3.40;;;;;;;16.33;100.00;91110.72;5033484;28;20406;-69
2022/08/05 04:49:34;;;;;;;4.18;3.10;;;;;;;16.40;100.00;91105.53;5033237;28;20095;-69
2022/08/05 04:51:59;;;;;;;6.45;2.70;;;;;;;16.51;100.00;91103.19;5032069;28;20048;-69
2022/08/05 04:54:26;;;;;;;5.03;3.20;;;;;;;16.64;100.00;91099.34;5033055;28;20037;-68
2022/08/05 04:56:54;;;;;;;3.30;3.00;;;;;;;16.83;100.00;91096.84;5033293;28;20534;-68
2022/08/05 04:59:21;;;;;;;4.05;3.38;;;;;;;16.94;100.00;91097.91;5033171;28;20029;-68
2022/08/05 05:01:50;;;;;;;4.45;3.05;;;;;;;17.11;100.00;91094.13;5032636;28;20041;-68
2022/08/05 05:04:16;;;;;;;5.82;3.00;;;;;;;17.19;100.00;91087.03;5032677;28;20045;-69
2022/08/05 05:06:42;;;;;;;2.70;2.50;;;;;;;17.36;100.00;91084.81;5033140;28;20026;-69
2022/08/05 05:09:08;;;;;;;3.13;2.50;;;;;;;17.60;100.00;91088.47;5032935;28;20041;-69
2022/08/05 05:11:34;;;;;;;3.28;2.80;;;;;;;17.78;100.00;91089.69;5033034;28;20093;-70
2022/08/05 05:13:59;;;;;;;3.70;3.17;;;;;;;19.10;96.80;91084.50;5032938;28;20112;-70
2022/08/05 05:16:25;;;;;;;7.47;3.42;;;;;;;21.68;76.15;91087.88;5032662;28;20519;-69
2022/08/05 05:18:50;;;;;;;9.55;4.78;;;;;;;22.96;69.63;91094.28;5032435;28;20030;-68
2022/08/05 05:21:16;;;;;;;8.13;4.72;;;;;;;24.27;64.75;91095.81;5032740;28;20049;-68
2022/08/05 05:23:41;;;;;;;4.45;3.45;;;;;;;26.40;56.24;91083.41;5032673;28;20038;-68
2022/08/05 05:26:07;;;;;;;5.57;3.22;;;;;;;28.47;50.04;91087.25;5032518;28;20029;-68
2022/08/05 05:28:32;;;;;;;3.95;2.58;;;;;;;29.83;46.96;91100.09;5032302;28;20035;-68
2022/08/05 05:30:58;;;;;;;3.03;2.67;;;;;;;31.21;43.46;91087.13;5032582;28;20040;-68
2022/08/05 05:33:24;;;;;;;3.17;2.88;;;;;;;32.30;41.10;91088.00;5031407;28;20037;-69
2022/08/05 05:35:49;;;;;;;2.97;2.70;;;;;;;33.55;39.02;91086.75;5032218;28;20079;-68
2022/08/05 05:38:16;;;;;;;3.35;3.00;;;;;;;33.14;38.43;91090.50;5032092;28;20041;-68
2022/08/05 05:40:42;;;;;;;3.30;2.90;;;;;;;33.94;38.14;91090.91;5032517;28;20049;-68
2022/08/05 05:43:08;;;;;;;5.72;2.83;;;;;;;34.75;35.72;91092.56;5032418;28;20029;-67
2022/08/05 05:45:33;;;;;;;2.72;2.53;;;;;;;34.15;36.09;91090.09;5032194;28;20026;-70
2022/08/05 05:47:59;;;;;;;3.72;3.00;;;;;;;34.00;37.65;91099.38;5032167;28;20025;-68
2022/08/05 05:50:25;;;;;;;4.43;2.60;;;;;;;36.00;34.22;91096.47;5031943;28;20034;-70
2022/08/05 05:52:50;;;;;;;2.95;2.70;;;;;;;36.45;33.31;91097.63;5032325;28;20029;-70
2022/08/05 05:55:17;;;;;;;3.97;3.35;;;;;;;36.00;34.15;91104.78;5032111;28;20087;-70
2022/08/05 05:57:44;;;;;;;3.47;3.05;;;;;;;37.58;32.23;91101.72;5031982;28;20107;-69
2022/08/05 06:00:13;;;;;;;3.72;2.65;;;;;;;38.37;30.92;91100.50;5031944;28;20108;-70
2022/08/05 06:02:39;;;;;;;2.92;2.63;;;;;;;39.45;30.00;91105.22;5031529;28;20404;-68
2022/08/05 06:05:09;;;;;;;2.92;2.72;;;;;;;40.17;29.09;91113.00;5031595;28;20029;-68
2022/08/05 06:07:35;;;;;;;2.50;2.30;;;;;;;39.65;28.61;91107.28;5047258;28;20029;-68
2022/08/05 06:10:02;;;;;;;2.70;2.40;;;;;;;37.21;30.99;91103.16;5032005;28;20033;-68
2022/08/05 06:12:27;;;;;;;2.60;2.40;;;;;;;39.07;28.88;91106.19;5031124;28;20407;-70
2022/08/05 06:14:52;;;;;;;2.67;2.47;;;;;;;40.66;27.98;91104.38;5031857;28;20499;-68
2022/08/05 06:17:18;;;;;;;2.03;1.88;;;;;;;39.43;27.95;91104.94;5031471;28;20499;-68
2022/08/05 06:19:43;;;;;;;3.22;2.80;;;;;;;40.82;27.77;91105.81;5031353;28;20052;-68
2022/08/05 06:22:09;;;;;;;5.68;3.05;;;;;;;39.95;28.17;91102.34;5031469;28;20025;-68
2022/08/05 06:24:35;;;;;;;3.20;2.72;;;;;;;40.47;27.88;91108.75;5031646;28;20029;-68
2022/08/05 06:39:52;;;;;;;4.00;2.72;;;;;;;42.32;25.75;91101.59;5108582;27;20395;-70
2022/08/05 06:42:18;;;;;;;2.50;2.30;;;;;;;42.54;26.04;91106.50;5107986;28;20039;-70
2022/08/05 06:44:43;;;;;;;17.38;12.88;;;;;;;42.99;25.65;91113.69;5108519;28;20023;-70
2022/08/05 06:47:09;;;;;;;5.50;3.70;;;;;;;42.34;26.12;91105.41;5108055;28;20038;-70
2022/08/05 06:49:34;;;;;;;2.83;2.63;;;;;;;43.68;25.01;91112.31;5108165;28;20023;-69
2022/08/05 06:52:00;;;;;;;3.53;2.97;;;;;;;44.49;24.63;91114.59;5107970;28;20031;-69
2022/08/05 06:54:25;;;;;;;3.22;2.60;;;;;;;45.73;23.44;91103.19;5108409;28;20546;-70
2022/08/05 06:56:51;;;;;;;4.88;3.30;;;;;;;46.37;22.72;91108.34;5108410;28;20024;-70
2022/08/05 06:59:16;;;;;;;4.20;3.33;;;;;;;45.76;23.55;91104.94;5107848;28;20107;-68
2022/08/05 07:01:42;;;;;;;4.28;2.90;;;;;;;44.92;24.50;91104.91;5108316;28;20024;-67
2022/08/05 07:04:07;;;;;;;3.47;3.05;;;;;;;43.64;24.92;91099.34;5108253;28;20485;-66
2022/08/05 07:06:33;;;;;;;3.53;2.80;;;;;;;44.22;24.05;91096.63;5108280;28;20028;-67
2022/08/05 07:08:59;;;;;;;8.73;4.53;;;;;;;43.11;25.44;91108.09;5108003;28;20500;-67
2022/08/05 07:11:27;;;;;;;4.18;3.78;;;;;;;42.80;26.33;91107.03;5108044;28;20486;-70
2022/08/05 07:16:48;;;;;;;4.30;2.90;;;;;;;43.19;24.47;91109.06;5107764;28;20035;-70
2022/08/05 07:19:18;;;;;;;5.18;3.90;;;;;;;42.87;25.21;91114.91;5107929;28;20032;-67
2022/08/05 07:21:45;;;;;;;5.38;3.30;;;;;;;45.04;23.23;91103.53;5107971;28;20031;-68
2022/08/05 07:24:11;;;;;;;3.88;3.22;;;;;;;44.76;23.22;91109.34;5107853;28;20027;-68
2022/08/05 07:26:36;;;;;;;2.50;2.30;;;;;;;44.53;23.04;91119.19;5108076;28;20103;-67
2022/08/05 07:29:02;;;;;;;3.40;2.75;;;;;;;46.18;22.12;91111.16;5107263;28;20465;-67
2022/08/05 07:31:28;;;;;;;3.70;2.40;;;;;;;44.53;23.20;91117.16;5107706;28;20031;-67
2022/08/05 07:33:53;;;;;;;3.20;2.28;;;;;;;45.71;22.13;91111.41;5107481;28;20039;-67
2022/08/05 07:36:19;;;;;;;11.57;8.18;;;;;;;45.02;22.09;91111.75;5107576;28;20115;-66
2022/08/05 07:38:44;;;;;;;3.72;2.60;;;;;;;45.42;21.99;91112.19;5105670;28;20529;-65
2022/08/05 07:41:20;;;;;;;11.45;9.18;;;;;;;44.05;22.10;91104.34;5093699;28;20059;-64
2022/08/05 07:43:46;;;;;;;2.25;2.03;;;;;;;41.08;24.27;91097.38;5093446;28;20425;-63
2022/08/05 07:46:12;;;;;;;1.95;1.85;;;;;;;39.37;26.79;91090.97;5093682;28;20537;-65
2022/08/05 07:48:37;;;;;;;2.35;2.00;;;;;;;38.68;27.06;91102.81;5093680;28;20086;-63
2022/08/05 07:51:03;;;;;;;2.20;2.00;;;;;;;39.73;26.68;91102.81;5093802;28;20036;-65
2022/08/05 07:53:29;;;;;;;2.67;2.15;;;;;;;41.65;25.09;91101.28;5093697;28;20067;-64
2022/08/05 07:55:55;;;;;;;2.58;2.17;;;;;;;40.74;26.39;91087.19;5093494;28;20089;-65
2022/08/05 07:58:20;;;;;;;4.38;2.58;;;;;;;41.79;25.08;91103.16;5093181;28;20178;-66
2022/08/05 08:00:46;;;;;;;2.63;2.15;;;;;;;40.58;25.37;91099.75;5093275;28;20173;-63
2022/08/05 08:03:12;;;;;;;2.80;2.55;;;;;;;42.68;24.55;91105.50;5093709;28;20047;-65
2022/08/05 08:05:41;;;;;;;2.15;1.90;;;;;;;43.71;23.19;91111.31;5093703;28;20052;-66
2022/08/05 08:08:06;;;;;;;2.25;2.05;;;;;;;43.04;23.47;91109.34;5093465;28;20036;-65
2022/08/05 08:10:32;;;;;;;1.98;1.85;;;;;;;43.77;25.24;91114.88;5093539;28;20102;-66
2022/08/05 08:12:57;;;;;;;2.38;2.17;;;;;;;43.99;23.77;91120.41;5093258;28;20039;-65
2022/08/05 08:15:23;;;;;;;1.80;1.70;;;;;;;42.86;24.91;91107.03;5093458;28;20115;-65
2022/08/05 08:17:48;;;;;;;2.42;2.22;;;;;;;43.42;23.84;91105.03;5093396;28;20063;-65
2022/08/05 08:20:14;;;;;;;1.88;1.73;;;;;;;43.19;22.57;91107.03;5093212;28;20035;-64
2022/08/05 08:22:39;;;;;;;2.17;1.98;;;;;;;43.94;24.14;91107.19;5093509;28;20024;-65
2022/08/05 08:25:05;;;;;;;2.50;1.95;;;;;;;42.04;22.49;91104.28;5093422;28;20068;-64
2022/08/05 08:27:31;;;;;;;1.80;1.70;;;;;;;42.80;24.12;91100.69;5093155;28;20059;-65
2022/08/05 08:29:57;;;;;;;5.63;2.40;;;;;;;42.58;23.03;91101.41;5092966;28;20474;-65
2022/08/05 08:32:22;;;;;;;2.47;1.88;;;;;;;41.48;24.91;91104.00;5093202;28;20094;-65
2022/08/05 08:34:48;;;;;;;1.85;1.75;;;;;;;42.46;23.04;91100.63;5093126;28;20050;-65
2022/08/05 08:37:14;;;;;;;1.70;1.60;;;;;;;42.30;22.62;91104.91;5093015;28;20040;-65
2022/08/05 08:39:40;;;;;;;1.77;1.67;;;;;;;42.03;23.60;91100.72;5092976;28;20051;-65
2022/08/05 08:42:08;;;;;;;5.93;3.10;;;;;;;43.56;23.62;91106.78;5093108;28;20040;-65
2022/08/05 08:44:34;;;;;;;2.20;2.00;;;;;;;43.90;22.69;91109.50;5093042;28;20044;-65
2022/08/05 08:47:02;;;;;;;2.35;1.83;;;;;;;45.33;23.60;91105.63;5092950;28;20433;-65
2022/08/05 08:49:32;;;;;;;2.10;1.90;;;;;;;43.08;21.99;91109.84;5091460;28;20051;-65
2022/08/05 08:52:02;;;;;;;2.45;2.22;;;;;;;42.66;22.86;91097.59;5091867;28;20489;-65
2022/08/05 08:54:29;;;;;;;2.53;2.13;;;;;;;43.14;24.02;91109.84;5093047;28;20048;-65
2022/08/05 08:56:55;;;;;;;2.70;1.70;;;;;;;43.64;22.61;91107.75;5092501;28;20548;-65
2022/08/05 08:59:22;;;;;;;2.22;1.67;;;;;;;42.35;23.76;91104.16;5092525;28;20043;-66
2022/08/05 09:01:48;;;;;;;2.53;2.33;;;;;;;42.23;24.13;91088.59;5092620;28;20051;-66
2022/08/05 09:04:15;;;;;;;2.40;2.20;;;;;;;40.11;25.20;91099.78;5092627;28;20048;-65
2022/08/05 09:06:40;;;;;;;1.90;1.80;;;;;;;42.34;24.19;91094.22;5092138;28;20416;-65
2022/08/05 09:09:06;;;;;;;2.15;1.77;;;;;;;42.40;23.35;91095.00;5092342;28;20486;-65
2022/08/05 09:11:32;;;;;;;1.90;1.80;;;;;;;40.57;24.89;91085.03;5092453;28;20036;-65
2022/08/05 09:13:59;;;;;;;5.57;2.78;;;;;;;34.99;29.57;91086.50;5092477;28;20039;-65
2022/08/05 09:16:25;;;;;;;2.30;2.10;;;;;;;32.51;33.96;91080.31;5092356;28;20119;-65
2022/08/05 09:18:51;;;;;;;3.53;2.60;;;;;;;30.93;36.15;91077.63;5090908;28;20032;-65
2022/08/05 09:21:18;;;;;;;115.70;76.47;;;;;;;29.65;38.33;91080.47;5091421;28;20051;-65
2022/08/05 09:23:44;;;;;;;3.58;2.47;;;;;;;28.98;40.55;91071.56;5090807;28;20047;-65
2022/08/05 09:26:16;;;;;;;3.25;2.47;;;;;;;28.61;41.30;91059.66;5092231;28;20516;-65
2022/08/05 09:28:42;;;;;;;2.17;1.90;;;;;;;29.05;39.99;91079.66;5091944;28;20079;-65
2022/08/05 09:31:13;;;;;;;2.20;2.10;;;;;;;29.41;39.35;91072.31;5091785;28;20111;-65
2022/08/05 09:33:53;;;;;;;2.50;2.30;;;;;;;33.76;34.71;91072.19;5091885;28;20540;-65
2022/08/05 09:36:19;;;;;;;2.00;1.90;;;;;;;33.40;34.37;91071.91;5091679;28;20055;-66
2022/08/05 09:38:59;;;;;;;2.20;2.00;;;;;;;32.06;34.74;91073.00;5090939;28;20096;-65
2022/08/05 09:41:25;;;;;;;2.45;1.90;;;;;;;34.81;32.13;91068.59;5091679;28;20055;-65
2022/08/05 09:43:51;;;;;;;1.98;1.88;;;;;;;36.28;29.85;91063.16;5091672;28;20040;-65
2022/08/05 09:46:31;;;;;;;2.00;1.80;;;;;;;34.01;31.32;91068.53;5091742;28;20149;-65
2022/08/05 09:49:00;;;;;;;2.20;1.90;;;;;;;32.12;34.93;91061.00;5091529;28;20070;-65
2022/08/05 09:51:34;;;;;;;1.90;1.80;;;;;;;32.01;36.02;91055.03;5091641;28;20521;-66
2022/08/05 09:54:04;;;;;;;2.80;2.60;;;;;;;32.09;36.34;91048.13;5091694;28;20036;-65
2022/08/05 09:56:32;;;;;;;1.98;1.88;;;;;;;31.03;37.47;91053.81;5091720;28;20040;-65
2022/08/05 09:59:05;;;;;;;2.78;2.28;;;;;;;30.96;38.85;91050.06;5083319;28;20048;-65
2022/08/05 10:01:32;;;;;;;2.20;2.10;;;;;;;30.00;38.90;91032.34;5071137;28;20036;-65
2022/08/05 10:04:03;;;;;;;2.17;1.95;;;;;;;29.60;39.45;91053.56;5070824;28;20567;-65
2022/08/05 10:06:29;;;;;;;2.85;2.00;;;;;;;29.64;38.95;91051.50;5071089;28;20048;-66
2022/08/05 10:09:08;;;;;;;29.30;17.05;;;;;;;31.02;38.61;91036.56;5070601;28;20043;-65
2022/08/05 10:11:33;;;;;;;2.70;2.50;;;;;;;31.08;38.51;91040.31;5070773;28;20453;-65
2022/08/05 10:14:19;;;;;;;2.05;1.83;;;;;;;32.65;36.89;91044.81;5071048;28;20043;-66
2022/08/05 10:16:45;;;;;;;2.30;2.10;;;;;;;34.30;33.42;91040.63;5070936;28;20047;-66
2022/08/05 10:19:12;;;;;;;2.22;2.05;;;;;;;37.38;29.44;91043.25;5070970;28;20036;-66
2022/08/05 10:21:37;;;;;;;2.40;2.20;;;;;;;38.29;29.28;91039.72;5070852;28;20102;-67
2022/08/05 10:24:03;;;;;;;2.40;2.20;;;;;;;38.92;28.28;91054.13;5070619;28;20079;-68
2022/08/05 10:26:30;;;;;;;7.03;2.60;;;;;;;39.29;26.88;91039.72;5070766;28;20032;-67
2022/08/05 10:28:55;;;;;;;2.38;2.25;;;;;;;37.81;30.08;91041.88;5070663;28;20076;-66
2022/08/05 10:31:21;;;;;;;2.10;1.83;;;;;;;40.14;26.09;91042.28;5070833;28;20446;-67
2022/08/05 10:33:47;;;;;;;2.00;1.80;;;;;;;38.89;26.53;91041.19;5070837;28;20474;-67
2022/08/05 10:36:12;;;;;;;1.80;1.70;;;;;;;39.01;27.39;91039.34;5070664;28;20510;-68
2022/08/05 10:38:42;;;;;;;3.05;2.80;;;;;;;39.81;26.84;91037.09;5069812;28;20083;-68
2022/08/05 10:41:16;;;;;;;42.35;29.88;;;;;;;40.40;26.27;91036.72;5070454;28;20047;-65
2022/08/05 10:43:45;;;;;;;2.28;2.05;;;;;;;41.82;25.81;91035.88;5070904;28;20557;-66
2022/08/05 10:46:14;;;;;;;2.20;2.00;;;;;;;40.81;26.34;91033.72;5070816;28;20556;-66
2022/08/05 10:48:41;;;;;;;3.65;3.13;;;;;;;37.99;28.08;91032.59;5070392;28;20083;-66
2022/08/05 10:51:09;;;;;;;2.40;2.20;;;;;;;37.81;28.31;91021.66;5070884;28;20502;-66
2022/08/05 10:53:36;;;;;;;2.05;1.95;;;;;;;36.53;30.39;91015.69;5070840;28;20036;-66
2022/08/05 10:56:09;;;;;;;2.70;2.15;;;;;;;39.42;26.72;91025.47;5071080;28;20193;-66
2022/08/05 10:58:35;;;;;;;2.13;1.92;;;;;;;41.68;27.35;91024.91;5070756;28;20075;-66
2022/08/05 11:04:42;;;;;;;20.90;15.88;;;;;;;38.11;27.52;91008.56;5078936;27;1301697;-68
2022/08/05 11:07:10;;;;;;;2.95;2.10;;;;;;;33.57;33.10;91005.06;5088422;28;20036;-67
2022/08/05 11:09:38;;;;;;;2.40;2.15;;;;;;;32.15;33.73;91004.28;5088459;28;20028;-67
2022/08/05 11:12:04;;;;;;;2.90;2.70;;;;;;;33.85;33.46;91005.28;5088220;28;20056;-67
2022/08/05 11:14:38;;;;;;;2.47;2.28;;;;;;;38.49;28.45;91011.22;5088071;28;20416;-68
2022/08/05 11:17:25;;;;;;;4.75;2.00;;;;;;;36.60;29.31;90995.91;5088257;28;20024;-67
2022/08/05 11:19:54;;;;;;;3.17;2.88;;;;;;;33.29;33.57;90998.56;5088403;28;20032;-67
2022/08/05 11:22:43;;;;;;;7.20;4.45;;;;;;;33.69;32.49;90995.19;5070592;28;20029;-68
2022/08/05 11:25:31;;;;;;;2.75;1.95;;;;;;;36.26;30.68;90988.03;5088343;28;20111;-67
2022/08/05 11:28:16;;;;;;;2.15;2.00;;;;;;;37.22;29.20;90996.50;5088009;28;20025;-67
2022/08/05 11:30:54;;;;;;;2.50;2.00;;;;;;;36.74;29.17;91002.00;5088320;28;20036;-67
2022/08/05 11:33:25;;;;;;;2.35;2.13;;;;;;;35.95;30.37;90991.84;5088138;28;20020;-67
2022/08/05 11:35:53;;;;;;;2.13;1.90;;;;;;;33.48;32.21;90996.75;5069613;28;20039;-67
2022/08/05 11:38:41;;;;;;;3.78;2.38;;;;;;;34.05;32.54;90988.34;5087881;28;20029;-67
2022/08/05 11:41:12;;;;;;;2.00;1.80;;;;;;;31.73;34.88;90982.38;5088089;28;20545;-67
2022/08/05 11:43:42;;;;;;;2.13;1.92;;;;;;;31.22;35.54;90978.72;5087871;28;20120;-67
2022/08/05 11:46:07;;;;;;;2.67;2.28;;;;;;;30.83;37.30;90982.50;5087834;28;20067;-67
2022/08/05 11:48:33;;;;;;;2.28;2.08;;;;;;;31.73;36.51;90985.13;5087751;28;20449;-66
2022/08/05 11:50:58;;;;;;;3.10;2.20;;;;;;;33.66;33.31;90982.28;5087476;28;20082;-65
2022/08/05 11:53:25;;;;;;;2.20;1.85;;;;;;;32.18;35.82;90986.88;5087406;28;20143;-66